Terminal Aerodrome Forecast
Issued by NWS

Home | Current Version | Previous Version | Text Only | Print | Product List | Glossary On
Versions: 1 2 3 4 5 6 7 8 9 10 11 12 13 14 15 16 17 18 19 20 21
000
FTUS46 KLOX 180200 AAA
TAFWJF
TAF AMD
KWJF 180230Z 1803/1824 27009KT P6SM SCT090 OVC120
     FM181400 28005KT P6SM SCT070 BKN110
     FM181600 VRB03KT P6SM VCSH SCT050 BKN090
     FM182200 30008KT P6SM SCT025 SCT050=

USA.gov is the U.S. government's official web portal to all federal, state and local government web resources and services.